sensor_id;sensor_type;location;lat;lon;timestamp;pressure;altitude;pressure_sealevel;temperature;humidity
54592;BME280;40488;48.558;18.150;2023-01-26T00:02:18;100332.84;;;1.65;93.70
54592;BME280;40488;48.558;18.150;2023-01-26T00:04:47;100331.88;;;1.63;94.37
54592;BME280;40488;48.558;18.150;2023-01-26T00:07:16;100312.22;;;1.55;94.12
54592;BME280;40488;48.558;18.150;2023-01-26T00:09:45;100327.66;;;1.62;93.51
54592;BME280;40488;48.558;18.150;2023-01-26T00:12:15;100321.75;;;1.62;93.69
54592;BME280;40488;48.558;18.150;2023-01-26T00:14:44;100322.56;;;1.61;93.80
54592;BME280;40488;48.558;18.150;2023-01-26T00:17:19;100316.66;;;1.60;93.49
54592;BME280;40488;48.558;18.150;2023-01-26T00:19:56;100324.22;;;1.60;94.00
54592;BME280;40488;48.558;18.150;2023-01-26T00:22:26;100319.38;;;1.65;94.16
54592;BME280;40488;48.558;18.150;2023-01-26T00:24:55;100322.81;;;1.67;94.33
54592;BME280;40488;48.558;18.150;2023-01-26T00:27:25;100321.22;;;1.69;93.41
54592;BME280;40488;48.558;18.150;2023-01-26T00:29:54;100321.22;;;1.69;93.33
54592;BME280;40488;48.558;18.150;2023-01-26T00:32:23;100314.50;;;1.68;94.23
54592;BME280;40488;48.558;18.150;2023-01-26T00:34:51;100315.34;;;1.68;93.49
54592;BME280;40488;48.558;18.150;2023-01-26T00:37:20;100312.75;;;1.67;94.13
54592;BME280;40488;48.558;18.150;2023-01-26T00:39:50;100307.47;;;1.61;93.70
54592;BME280;40488;48.558;18.150;2023-01-26T00:42:18;100315.81;;;1.60;93.89
54592;BME280;40488;48.558;18.150;2023-01-26T00:44:50;100314.22;;;1.62;93.82
54592;BME280;40488;48.558;18.150;2023-01-26T00:47:19;100309.19;;;1.62;93.43
54592;BME280;40488;48.558;18.150;2023-01-26T00:49:49;100305.16;;;1.65;94.33
54592;BME280;40488;48.558;18.150;2023-01-26T00:52:18;100300.84;;;1.63;93.76
54592;BME280;40488;48.558;18.150;2023-01-26T00:54:47;100299.84;;;1.59;93.47
54592;BME280;40488;48.558;18.150;2023-01-26T00:57:16;100297.41;;;1.61;93.84
54592;BME280;40488;48.558;18.150;2023-01-26T00:59:45;100298.97;;;1.59;94.13
54592;BME280;40488;48.558;18.150;2023-01-26T01:02:15;100290.50;;;1.57;94.06
54592;BME280;40488;48.558;18.150;2023-01-26T01:04:45;100295.69;;;1.60;93.86
54592;BME280;40488;48.558;18.150;2023-01-26T01:07:14;100289.06;;;1.62;94.01
54592;BME280;40488;48.558;18.150;2023-01-26T01:09:44;100288.91;;;1.59;93.83
54592;BME280;40488;48.558;18.150;2023-01-26T01:12:13;100284.69;;;1.58;94.05
54592;BME280;40488;48.558;18.150;2023-01-26T01:14:42;100282.19;;;1.58;94.24
54592;BME280;40488;48.558;18.150;2023-01-26T01:17:11;100282.03;;;1.55;94.18
54592;BME280;40488;48.558;18.150;2023-01-26T01:19:42;100281.88;;;1.52;93.68
54592;BME280;40488;48.558;18.150;2023-01-26T01:22:12;100277.78;;;1.54;94.25
54592;BME280;40488;48.558;18.150;2023-01-26T01:24:41;100277.94;;;1.57;93.64
54592;BME280;40488;48.558;18.150;2023-01-26T01:27:10;100275.41;;;1.57;94.20
54592;BME280;40488;48.558;18.150;2023-01-26T01:29:39;100272.13;;;1.58;94.23
54592;BME280;40488;48.558;18.150;2023-01-26T01:32:08;100270.25;;;1.54;93.92
54592;BME280;40488;48.558;18.150;2023-01-26T01:34:37;100260.06;;;1.51;94.06
54592;BME280;40488;48.558;18.150;2023-01-26T01:37:07;100257.66;;;1.54;93.87
54592;BME280;40488;48.558;18.150;2023-01-26T01:39:36;100251.13;;;1.57;93.64
54592;BME280;40488;48.558;18.150;2023-01-26T01:42:05;100249.53;;;1.59;94.49
54592;BME280;40488;48.558;18.150;2023-01-26T01:44:34;100251.13;;;1.57;93.75
54592;BME280;40488;48.558;18.150;2023-01-26T01:47:06;100247.75;;;1.57;94.21
54592;BME280;40488;48.558;18.150;2023-01-26T01:49:43;100250.25;;;1.57;94.04
54592;BME280;40488;48.558;18.150;2023-01-26T01:52:18;100234.44;;;1.59;94.34
54592;BME280;40488;48.558;18.150;2023-01-26T01:54:51;100237.09;;;1.62;93.65
54592;BME280;40488;48.558;18.150;2023-01-26T01:57:25;100228.69;;;1.62;93.67
54592;BME280;40488;48.558;18.150;2023-01-26T01:59:59;100228.69;;;1.62;94.64
54592;BME280;40488;48.558;18.150;2023-01-26T02:02:40;100216.94;;;1.61;94.40
54592;BME280;40488;48.558;18.150;2023-01-26T02:05:35;100211.94;;;1.62;93.60
54592;BME280;40488;48.558;18.150;2023-01-26T02:08:12;100216.16;;;1.63;94.02
54592;BME280;40488;48.558;18.150;2023-01-26T02:10:46;100213.00;;;1.67;93.79
54592;BME280;40488;48.558;18.150;2023-01-26T02:13:17;100215.44;;;1.66;93.97
54592;BME280;40488;48.558;18.150;2023-01-26T02:15:47;100206.09;;;1.63;94.40
54592;BME280;40488;48.558;18.150;2023-01-26T02:18:16;100203.72;;;1.66;94.62
54592;BME280;40488;48.558;18.150;2023-01-26T02:20:48;100207.25;;;1.70;93.45
54592;BME280;40488;48.558;18.150;2023-01-26T02:23:26;100208.94;;;1.71;94.07
54592;BME280;40488;48.558;18.150;2023-01-26T02:26:07;100208.84;;;1.68;93.47
54592;BME280;40488;48.558;18.150;2023-01-26T02:28:38;100215.56;;;1.69;93.43
54592;BME280;40488;48.558;18.150;2023-01-26T02:31:07;100208.13;;;1.70;93.99
54592;BME280;40488;48.558;18.150;2023-01-26T02:33:39;100200.63;;;1.72;93.93
54592;BME280;40488;48.558;18.150;2023-01-26T02:36:17;100199.03;;;1.74;94.16
54592;BME280;40488;48.558;18.150;2023-01-26T02:38:54;100203.28;;;1.75;93.97
54592;BME280;40488;48.558;18.150;2023-01-26T02:41:28;100189.09;;;1.77;93.59
54592;BME280;40488;48.558;18.150;2023-01-26T02:44:09;100189.16;;;1.78;94.47
54592;BME280;40488;48.558;18.150;2023-01-26T02:46:39;100186.63;;;1.78;94.53
54592;BME280;40488;48.558;18.150;2023-01-26T02:49:08;100185.84;;;1.79;94.03
54592;BME280;40488;48.558;18.150;2023-01-26T02:51:46;100189.25;;;1.80;94.51
54592;BME280;40488;48.558;18.150;2023-01-26T02:54:16;100179.03;;;1.77;93.45
54592;BME280;40488;48.558;18.150;2023-01-26T02:57:01;100180.50;;;1.72;94.24
54592;BME280;40488;48.558;18.150;2023-01-26T02:59:30;100180.34;;;1.69;93.61
54592;BME280;40488;48.558;18.150;2023-01-26T03:01:59;100182.16;;;1.71;94.39
54592;BME280;40488;48.558;18.150;2023-01-26T03:04:28;100183.00;;;1.72;94.08
54592;BME280;40488;48.558;18.150;2023-01-26T03:06:57;100177.25;;;1.74;93.71
54592;BME280;40488;48.558;18.150;2023-01-26T03:09:25;100179.03;;;1.77;93.60
54592;BME280;40488;48.558;18.150;2023-01-26T03:11:54;100177.44;;;1.79;94.23
54592;BME280;40488;48.558;18.150;2023-01-26T03:14:25;100177.44;;;1.79;94.11
54592;BME280;40488;48.558;18.150;2023-01-26T03:16:53;100178.22;;;1.78;94.27
54592;BME280;40488;48.558;18.150;2023-01-26T03:19:23;100175.59;;;1.75;94.22
54592;BME280;40488;48.558;18.150;2023-01-26T03:22:09;100168.16;;;1.78;94.52
54592;BME280;40488;48.558;18.150;2023-01-26T03:24:48;100167.38;;;1.79;93.91
54592;BME280;40488;48.558;18.150;2023-01-26T03:27:26;100174.16;;;1.80;93.84
54592;BME280;40488;48.558;18.150;2023-01-26T03:30:02;100173.19;;;1.78;93.55
54592;BME280;40488;48.558;18.150;2023-01-26T03:32:31;100166.50;;;1.78;94.34
54592;BME280;40488;48.558;18.150;2023-01-26T03:35:01;100162.34;;;1.79;94.41
54592;BME280;40488;48.558;18.150;2023-01-26T03:37:31;100155.56;;;1.78;94.42
54592;BME280;40488;48.558;18.150;2023-01-26T03:40:06;100147.84;;;1.73;93.60
54592;BME280;40488;48.558;18.150;2023-01-26T03:42:45;100156.44;;;1.78;94.35
54592;BME280;40488;48.558;18.150;2023-01-26T03:45:25;100154.78;;;1.79;93.93
54592;BME280;40488;48.558;18.150;2023-01-26T03:48:07;100152.34;;;1.80;94.01
54592;BME280;40488;48.558;18.150;2023-01-26T03:50:46;100141.47;;;1.81;94.38
54592;BME280;40488;48.558;18.150;2023-01-26T03:53:23;100140.63;;;1.81;93.70
54592;BME280;40488;48.558;18.150;2023-01-26T03:56:06;100137.22;;;1.80;94.03
54592;BME280;40488;48.558;18.150;2023-01-26T03:58:47;100127.81;;;1.75;93.73
54592;BME280;40488;48.558;18.150;2023-01-26T04:01:23;100138.09;;;1.81;94.15
54592;BME280;40488;48.558;18.150;2023-01-26T04:03:57;100128.84;;;1.80;93.70
54592;BME280;40488;48.558;18.150;2023-01-26T04:06:41;100127.13;;;1.79;93.49
54592;BME280;40488;48.558;18.150;2023-01-26T04:09:20;100129.63;;;1.79;93.35
54592;BME280;40488;48.558;18.150;2023-01-26T04:11:49;100126.25;;;1.78;94.06
54592;BME280;40488;48.558;18.150;2023-01-26T04:14:18;100128.03;;;1.81;94.08
54592;BME280;40488;48.558;18.150;2023-01-26T04:16:59;100123.81;;;1.80;93.82
54592;BME280;40488;48.558;18.150;2023-01-26T04:19:39;100120.50;;;1.81;93.19
54592;BME280;40488;48.558;18.150;2023-01-26T04:22:17;100115.47;;;1.81;94.03
54592;BME280;40488;48.558;18.150;2023-01-26T04:24:47;100109.56;;;1.80;93.13
54592;BME280;40488;48.558;18.150;2023-01-26T04:27:16;100107.00;;;1.79;93.65
54592;BME280;40488;48.558;18.150;2023-01-26T04:29:45;100100.38;;;1.81;94.00
54592;BME280;40488;48.558;18.150;2023-01-26T04:32:15;100100.38;;;1.81;94.11
54592;BME280;40488;48.558;18.150;2023-01-26T04:34:46;100098.66;;;1.80;93.09
54592;BME280;40488;48.558;18.150;2023-01-26T04:37:20;100101.97;;;1.79;93.12
54592;BME280;40488;48.558;18.150;2023-01-26T04:39:51;100095.19;;;1.78;93.31
54592;BME280;40488;48.558;18.150;2023-01-26T04:42:21;100088.47;;;1.77;94.03
54592;BME280;40488;48.558;18.150;2023-01-26T04:44:52;100089.13;;;1.73;93.71
54592;BME280;40488;48.558;18.150;2023-01-26T04:47:23;100086.50;;;1.70;93.33
54592;BME280;40488;48.558;18.150;2023-01-26T04:49:56;100091.53;;;1.70;93.79
54592;BME280;40488;48.558;18.150;2023-01-26T04:52:26;100093.22;;;1.71;93.58
54592;BME280;40488;48.558;18.150;2023-01-26T04:54:54;100088.34;;;1.74;93.83
54592;BME280;40488;48.558;18.150;2023-01-26T04:57:23;100081.56;;;1.73;93.61
54592;BME280;40488;48.558;18.150;2023-01-26T04:59:53;100086.50;;;1.70;93.66
54592;BME280;40488;48.558;18.150;2023-01-26T05:02:24;100086.38;;;1.67;93.89
54592;BME280;40488;48.558;18.150;2023-01-26T05:04:53;100094.69;;;1.66;93.99
54592;BME280;40488;48.558;18.150;2023-01-26T05:07:23;100090.41;;;1.63;93.87
54592;BME280;40488;48.558;18.150;2023-01-26T05:09:52;100093.72;;;1.62;93.03
54592;BME280;40488;48.558;18.150;2023-01-26T05:12:33;100084.53;;;1.63;93.36
54592;BME280;40488;48.558;18.150;2023-01-26T05:15:13;100087.16;;;1.66;93.17
54592;BME280;40488;48.558;18.150;2023-01-26T05:17:56;100088.94;;;1.68;93.65
54592;BME280;40488;48.558;18.150;2023-01-26T05:20:37;100081.34;;;1.67;93.23
54592;BME280;40488;48.558;18.150;2023-01-26T05:23:32;100081.34;;;1.67;93.54
54592;BME280;40488;48.558;18.150;2023-01-26T05:26:12;100079.59;;;1.66;94.07
54592;BME280;40488;48.558;18.150;2023-01-26T05:28:52;100072.94;;;1.66;93.31
54592;BME280;40488;48.558;18.150;2023-01-26T05:31:22;100080.59;;;1.69;94.04
54592;BME280;40488;48.558;18.150;2023-01-26T05:33:53;100071.41;;;1.70;93.84
54592;BME280;40488;48.558;18.150;2023-01-26T05:36:23;100072.38;;;1.73;93.73
54592;BME280;40488;48.558;18.150;2023-01-26T05:38:52;100072.38;;;1.73;93.80
54592;BME280;40488;48.558;18.150;2023-01-26T05:41:24;100073.09;;;1.71;93.41
54592;BME280;40488;48.558;18.150;2023-01-26T05:44:05;100068.91;;;1.70;94.24
54592;BME280;40488;48.558;18.150;2023-01-26T05:46:41;100067.28;;;1.72;94.39
54592;BME280;40488;48.558;18.150;2023-01-26T05:49:12;100074.03;;;1.73;93.63
54592;BME280;40488;48.558;18.150;2023-01-26T05:51:41;100070.69;;;1.72;93.40
54592;BME280;40488;48.558;18.150;2023-01-26T05:54:09;100075.63;;;1.71;93.80
54592;BME280;40488;48.558;18.150;2023-01-26T05:56:39;100077.31;;;1.70;94.09
54592;BME280;40488;48.558;18.150;2023-01-26T05:59:08;100078.13;;;1.71;93.66
54592;BME280;40488;48.558;18.150;2023-01-26T06:01:37;100076.31;;;1.67;93.66
54592;BME280;40488;48.558;18.150;2023-01-26T06:04:07;100088.94;;;1.68;93.48
54592;BME280;40488;48.558;18.150;2023-01-26T06:06:53;100086.59;;;1.73;94.13
54592;BME280;40488;48.558;18.150;2023-01-26T06:09:25;100092.59;;;1.75;93.99
54592;BME280;40488;48.558;18.150;2023-01-26T06:12:04;100092.69;;;1.78;94.08
54592;BME280;40488;48.558;18.150;2023-01-26T06:14:44;100087.56;;;1.75;94.23
54592;BME280;40488;48.558;18.150;2023-01-26T06:17:16;100090.13;;;1.76;93.94
54592;BME280;40488;48.558;18.150;2023-01-26T06:19:48;100084.34;;;1.79;93.91
54592;BME280;40488;48.558;18.150;2023-01-26T06:22:19;100088.59;;;1.80;94.38
54592;BME280;40488;48.558;18.150;2023-01-26T06:24:49;100089.50;;;1.82;93.78
54592;BME280;40488;48.558;18.150;2023-01-26T06:27:20;100092.81;;;1.81;93.50
54592;BME280;40488;48.558;18.150;2023-01-26T06:29:50;100090.25;;;1.79;94.46
54592;BME280;40488;48.558;18.150;2023-01-26T06:32:19;100092.03;;;1.82;94.40
54592;BME280;40488;48.558;18.150;2023-01-26T06:34:52;100073.38;;;1.77;94.40
54592;BME280;40488;48.558;18.150;2023-01-26T06:37:23;100088.84;;;1.86;94.31
54592;BME280;40488;48.558;18.150;2023-01-26T06:39:53;100092.13;;;1.85;94.29
54592;BME280;40488;48.558;18.150;2023-01-26T06:42:21;100087.78;;;1.81;93.47
54592;BME280;40488;48.558;18.150;2023-01-26T06:44:51;100081.97;;;1.82;94.41
54592;BME280;40488;48.558;18.150;2023-01-26T06:47:19;100085.25;;;1.81;94.25
54592;BME280;40488;48.558;18.150;2023-01-26T06:49:49;100077.03;;;1.85;94.28
54592;BME280;40488;48.558;18.150;2023-01-26T06:52:25;100083.00;;;1.87;94.04
54592;BME280;40488;48.558;18.150;2023-01-26T06:55:02;100071.91;;;1.82;93.37
54592;BME280;40488;48.558;18.150;2023-01-26T06:57:42;100072.00;;;1.85;93.35
54592;BME280;40488;48.558;18.150;2023-01-26T07:00:22;100078.75;;;1.86;94.30
54592;BME280;40488;48.558;18.150;2023-01-26T07:03:02;100073.72;;;1.86;93.79
54592;BME280;40488;48.558;18.150;2023-01-26T07:05:31;100078.91;;;1.89;93.92
54592;BME280;40488;48.558;18.150;2023-01-26T07:08:01;100078.91;;;1.89;93.42
54592;BME280;40488;48.558;18.150;2023-01-26T07:10:33;100075.34;;;1.84;93.55
54592;BME280;40488;48.558;18.150;2023-01-26T07:13:02;100073.59;;;1.83;93.70
54592;BME280;40488;48.558;18.150;2023-01-26T07:15:32;100073.72;;;1.86;93.53
54592;BME280;40488;48.558;18.150;2023-01-26T07:18:00;100072.88;;;1.85;93.58
54592;BME280;40488;48.558;18.150;2023-01-26T07:20:29;100073.72;;;1.86;94.00
54592;BME280;40488;48.558;18.150;2023-01-26T07:22:58;100068.56;;;1.83;93.13
54592;BME280;40488;48.558;18.150;2023-01-26T07:25:28;100076.19;;;1.84;93.93
54592;BME280;40488;48.558;18.150;2023-01-26T07:27:57;100074.59;;;1.86;93.08
54592;BME280;40488;48.558;18.150;2023-01-26T07:30:26;100064.59;;;1.88;93.42
54592;BME280;40488;48.558;18.150;2023-01-26T07:32:58;100063.81;;;1.89;93.49
54592;BME280;40488;48.558;18.150;2023-01-26T07:35:27;100070.66;;;1.93;93.43
54592;BME280;40488;48.558;18.150;2023-01-26T07:37:56;100067.34;;;1.94;93.86
54592;BME280;40488;48.558;18.150;2023-01-26T07:40:25;100065.88;;;1.99;93.46
54592;BME280;40488;48.558;18.150;2023-01-26T07:42:56;100069.31;;;2.01;92.97
54592;BME280;40488;48.558;18.150;2023-01-26T07:45:37;100061.81;;;2.02;92.91
54592;BME280;40488;48.558;18.150;2023-01-26T07:48:05;100066.84;;;2.02;93.58
54592;BME280;40488;48.558;18.150;2023-01-26T07:50:34;100066.84;;;2.02;92.75
54592;BME280;40488;48.558;18.150;2023-01-26T07:53:03;100075.09;;;1.98;92.65
54592;BME280;40488;48.558;18.150;2023-01-26T07:55:32;100068.41;;;1.99;93.24
54592;BME280;40488;48.558;18.150;2023-01-26T07:58:02;100069.31;;;2.01;92.75
54592;BME280;40488;48.558;18.150;2023-01-26T08:00:31;100071.88;;;2.02;93.60
54592;BME280;40488;48.558;18.150;2023-01-26T08:03:00;100072.50;;;1.97;93.16
54592;BME280;40488;48.558;18.150;2023-01-26T08:05:30;100072.50;;;1.97;92.59
54592;BME280;40488;48.558;18.150;2023-01-26T08:08:00;100065.97;;;2.02;92.65
54592;BME280;40488;48.558;18.150;2023-01-26T08:10:29;100062.91;;;2.09;93.03
54592;BME280;40488;48.558;18.150;2023-01-26T08:12:59;100054.56;;;2.10;92.36
54592;BME280;40488;48.558;18.150;2023-01-26T08:15:29;100048.66;;;2.10;92.85
54592;BME280;40488;48.558;18.150;2023-01-26T08:17:58;100047.91;;;2.12;92.97
54592;BME280;40488;48.558;18.150;2023-01-26T08:20:30;100049.75;;;2.16;92.69
54592;BME280;40488;48.558;18.150;2023-01-26T08:22:59;100044.63;;;2.13;92.80
54592;BME280;40488;48.558;18.150;2023-01-26T08:25:28;100050.50;;;2.14;92.35
54592;BME280;40488;48.558;18.150;2023-01-26T08:27:59;100046.31;;;2.14;92.18
54592;BME280;40488;48.558;18.150;2023-01-26T08:30:31;100045.66;;;2.18;92.20
54592;BME280;40488;48.558;18.150;2023-01-26T08:32:59;100047.59;;;2.25;92.03
54592;BME280;40488;48.558;18.150;2023-01-26T08:35:30;100039.97;;;2.24;91.82
54592;BME280;40488;48.558;18.150;2023-01-26T08:37:59;100049.19;;;2.23;92.14
54592;BME280;40488;48.558;18.150;2023-01-26T08:40:28;100038.19;;;2.21;91.95
54592;BME280;40488;48.558;18.150;2023-01-26T08:42:59;100043.34;;;2.24;91.94
54592;BME280;40488;48.558;18.150;2023-01-26T08:45:30;100046.03;;;2.29;92.57
54592;BME280;40488;48.558;18.150;2023-01-26T08:47:59;100041.88;;;2.29;92.58
54592;BME280;40488;48.558;18.150;2023-01-26T08:50:28;100036.84;;;2.29;92.06
54592;BME280;40488;48.558;18.150;2023-01-26T08:52:57;100034.38;;;2.31;92.00
54592;BME280;40488;48.558;18.150;2023-01-26T08:55:26;100026.16;;;2.35;92.02
54592;BME280;40488;48.558;18.150;2023-01-26T08:57:56;100026.97;;;2.35;91.94
54592;BME280;40488;48.558;18.150;2023-01-26T09:00:25;100020.81;;;2.27;92.09
54592;BME280;40488;48.558;18.150;2023-01-26T09:02:59;100035.09;;;2.28;92.08
54592;BME280;40488;48.558;18.150;2023-01-26T09:05:31;100033.41;;;2.27;92.18
54592;BME280;40488;48.558;18.150;2023-01-26T09:08:00;100045.09;;;2.25;92.37
54592;BME280;40488;48.558;18.150;2023-01-26T09:10:29;100041.63;;;2.23;91.84
54592;BME280;40488;48.558;18.150;2023-01-26T09:12:58;100045.91;;;2.26;91.56
54592;BME280;40488;48.558;18.150;2023-01-26T09:15:27;100045.13;;;2.27;91.54
54592;BME280;40488;48.558;18.150;2023-01-26T09:17:58;100054.47;;;2.29;92.47
54592;BME280;40488;48.558;18.150;2023-01-26T09:20:27;100048.69;;;2.32;91.59
54592;BME280;40488;48.558;18.150;2023-01-26T09:22:56;100047.13;;;2.35;92.31
54592;BME280;40488;48.558;18.150;2023-01-26T09:25:25;100038.78;;;2.36;91.67
54592;BME280;40488;48.558;18.150;2023-01-26T09:27:54;100039.66;;;2.37;91.69
54592;BME280;40488;48.558;18.150;2023-01-26T09:30:22;100041.31;;;2.36;91.69
54592;BME280;40488;48.558;18.150;2023-01-26T09:32:58;100041.34;;;2.38;92.42
54592;BME280;40488;48.558;18.150;2023-01-26T09:35:28;100033.88;;;2.39;92.47
54592;BME280;40488;48.558;18.150;2023-01-26T09:37:57;100041.75;;;2.48;92.28
54592;BME280;40488;48.558;18.150;2023-01-26T09:40:35;100039.34;;;2.51;92.42
54592;BME280;40488;48.558;18.150;2023-01-26T09:43:16;100037.63;;;2.50;91.32
54592;BME280;40488;48.558;18.150;2023-01-26T09:45:55;100035.19;;;2.52;91.78
54592;BME280;40488;48.558;18.150;2023-01-26T09:48:36;100027.72;;;2.55;92.27
54592;BME280;40488;48.558;18.150;2023-01-26T09:51:11;100022.84;;;2.59;91.41
54592;BME280;40488;48.558;18.150;2023-01-26T09:53:46;100022.84;;;2.59;92.03
54592;BME280;40488;48.558;18.150;2023-01-26T09:56:19;100023.66;;;2.58;91.50
54592;BME280;40488;48.558;18.150;2023-01-26T09:58:53;100021.03;;;2.55;91.26
54592;BME280;40488;48.558;18.150;2023-01-26T10:01:30;100022.84;;;2.59;91.32
54592;BME280;40488;48.558;18.150;2023-01-26T10:04:12;100018.75;;;2.61;91.04
54592;BME280;40488;48.558;18.150;2023-01-26T10:06:43;100021.25;;;2.61;91.09
54592;BME280;40488;48.558;18.150;2023-01-26T10:09:27;100012.94;;;2.64;91.14
54592;BME280;40488;48.558;18.150;2023-01-26T10:12:01;100012.13;;;2.65;91.29
54592;BME280;40488;48.558;18.150;2023-01-26T10:14:33;100010.38;;;2.62;91.19
54592;BME280;40488;48.558;18.150;2023-01-26T10:17:04;100021.47;;;2.67;90.73
54592;BME280;40488;48.558;18.150;2023-01-26T10:19:41;100017.28;;;2.68;91.36
54592;BME280;40488;48.558;18.150;2023-01-26T10:22:15;100011.50;;;2.70;91.34
54592;BME280;40488;48.558;18.150;2023-01-26T10:24:48;100011.50;;;2.70;91.33
54592;BME280;40488;48.558;18.150;2023-01-26T10:27:17;100008.72;;;2.63;90.38
54592;BME280;40488;48.558;18.150;2023-01-26T10:29:46;100005.16;;;2.58;90.95
54592;BME280;40488;48.558;18.150;2023-01-26T10:32:16;99999.22;;;2.56;90.23
54592;BME280;40488;48.558;18.150;2023-01-26T10:34:49;100001.66;;;2.54;90.64
54592;BME280;40488;48.558;18.150;2023-01-26T10:37:21;99996.00;;;2.60;90.06
54592;BME280;40488;48.558;18.150;2023-01-26T10:39:58;99987.50;;;2.56;90.64
54592;BME280;40488;48.558;18.150;2023-01-26T10:42:29;99997.66;;;2.59;90.46
54592;BME280;40488;48.558;18.150;2023-01-26T10:45:01;99985.13;;;2.61;90.33
54592;BME280;40488;48.558;18.150;2023-01-26T10:47:30;99982.66;;;2.62;89.73
54592;BME280;40488;48.558;18.150;2023-01-26T10:50:18;99990.09;;;2.59;90.31
54592;BME280;40488;48.558;18.150;2023-01-26T10:52:59;99980.59;;;2.52;89.82
54592;BME280;40488;48.558;18.150;2023-01-26T10:55:29;99985.75;;;2.55;90.28
54592;BME280;40488;48.558;18.150;2023-01-26T10:58:00;99980.72;;;2.55;89.55
54592;BME280;40488;48.558;18.150;2023-01-26T11:00:30;99982.53;;;2.59;89.69
54592;BME280;40488;48.558;18.150;2023-01-26T11:03:04;99967.41;;;2.59;90.09
54592;BME280;40488;48.558;18.150;2023-01-26T11:05:43;99968.91;;;2.54;89.20
54592;BME280;40488;48.558;18.150;2023-01-26T11:08:30;99962.31;;;2.56;89.88
54592;BME280;40488;48.558;18.150;2023-01-26T11:11:00;99953.91;;;2.57;89.96
54592;BME280;40488;48.558;18.150;2023-01-26T11:13:29;99943.72;;;2.54;89.51
54592;BME280;40488;48.558;18.150;2023-01-26T11:16:07;99946.19;;;2.53;90.01
54592;BME280;40488;48.558;18.150;2023-01-26T11:18:43;99939.56;;;2.55;89.91
54592;BME280;40488;48.558;18.150;2023-01-26T11:21:18;99938.69;;;2.54;89.48
54592;BME280;40488;48.558;18.150;2023-01-26T11:23:54;99927.63;;;2.49;89.82
54592;BME280;40488;48.558;18.150;2023-01-26T11:27:01;99930.34;;;2.55;89.57
54592;BME280;40488;48.558;18.150;2023-01-26T11:29:48;99929.59;;;2.58;89.56
54592;BME280;40488;48.558;18.150;2023-01-26T11:32:25;99928.06;;;2.61;90.07
54592;BME280;40488;48.558;18.150;2023-01-26T11:35:06;99917.97;;;2.61;89.89
54592;BME280;40488;48.558;18.150;2023-01-26T11:37:51;99922.31;;;2.65;89.89
54592;BME280;40488;48.558;18.150;2023-01-26T11:40:31;99918.16;;;2.67;89.31
54592;BME280;40488;48.558;18.150;2023-01-26T11:43:25;99910.63;;;2.67;89.51
54592;BME280;40488;48.558;18.150;2023-01-26T11:46:16;99912.34;;;2.68;89.05
54592;BME280;40488;48.558;18.150;2023-01-26T11:49:00;99913.91;;;2.66;89.49
54592;BME280;40488;48.558;18.150;2023-01-26T11:51:46;99875.41;;;2.45;89.06
54592;BME280;40488;48.558;18.150;2023-01-26T11:54:36;99899.56;;;2.64;89.89
54592;BME280;40488;48.558;18.150;2023-01-26T11:57:15;99887.03;;;2.65;90.03
54592;BME280;40488;48.558;18.150;2023-01-26T11:59:51;99882.91;;;2.67;89.25
54592;BME280;40488;48.558;18.150;2023-01-26T12:02:27;99882.09;;;2.68;89.37
54592;BME280;40488;48.558;18.150;2023-01-26T12:04:59;99884.50;;;2.65;89.77
54592;BME280;40488;48.558;18.150;2023-01-26T12:07:40;99843.41;;;2.43;89.25
54592;BME280;40488;48.558;18.150;2023-01-26T12:10:28;99878.56;;;2.63;89.64
54592;BME280;40488;48.558;18.150;2023-01-26T12:13:02;99869.13;;;2.58;88.81
54592;BME280;40488;48.558;18.150;2023-01-26T12:15:35;99871.75;;;2.61;88.93
54592;BME280;40488;48.558;18.150;2023-01-26T12:18:13;99866.66;;;2.59;89.86
54592;BME280;40488;48.558;18.150;2023-01-26T12:20:44;99871.75;;;2.61;89.91
54592;BME280;40488;48.558;18.150;2023-01-26T12:23:24;99867.59;;;2.61;89.91
54592;BME280;40488;48.558;18.150;2023-01-26T12:25:58;99856.50;;;2.56;89.02
54592;BME280;40488;48.558;18.150;2023-01-26T12:28:30;99862.44;;;2.58;88.85
54592;BME280;40488;48.558;18.150;2023-01-26T12:31:08;99859.09;;;2.59;88.98
54592;BME280;40488;48.558;18.150;2023-01-26T12:33:41;99857.50;;;2.61;88.82
54592;BME280;40488;48.558;18.150;2023-01-26T12:36:34;99860.88;;;2.62;89.83
54592;BME280;40488;48.558;18.150;2023-01-26T12:39:12;99850.75;;;2.60;89.58
54592;BME280;40488;48.558;18.150;2023-01-26T12:41:58;99852.38;;;2.58;88.97
54592;BME280;40488;48.558;18.150;2023-01-26T12:44:35;99852.41;;;2.60;88.72
54592;BME280;40488;48.558;18.150;2023-01-26T12:47:11;99850.78;;;2.62;88.99
54592;BME280;40488;48.558;18.150;2023-01-26T12:49:48;99839.97;;;2.64;89.22
54592;BME280;40488;48.558;18.150;2023-01-26T12:52:23;99848.41;;;2.66;89.58
54592;BME280;40488;48.558;18.150;2023-01-26T12:54:57;99846.66;;;2.64;89.64
54592;BME280;40488;48.558;18.150;2023-01-26T12:57:35;99846.72;;;2.65;89.27
54592;BME280;40488;48.558;18.150;2023-01-26T13:00:17;99848.41;;;2.66;89.52
54592;BME280;40488;48.558;18.150;2023-01-26T13:02:49;99845.81;;;2.63;89.21
54592;BME280;40488;48.558;18.150;2023-01-26T13:05:26;99848.34;;;2.63;89.08
54592;BME280;40488;48.558;18.150;2023-01-26T13:07:55;99849.28;;;2.67;89.11
54592;BME280;40488;48.558;18.150;2023-01-26T13:10:29;99855.06;;;2.64;88.60
54592;BME280;40488;48.558;18.150;2023-01-26T13:13:27;99853.22;;;2.59;89.28
54592;BME280;40488;48.558;18.150;2023-01-26T13:18:50;99854.13;;;2.61;89.30
54592;BME280;40488;48.558;18.150;2023-01-26T13:21:25;99843.19;;;2.60;88.89
54592;BME280;40488;48.558;18.150;2023-01-26T13:23:55;99847.47;;;2.63;88.74
54592;BME280;40488;48.558;18.150;2023-01-26T13:29:34;99847.44;;;2.61;88.31
54592;BME280;40488;48.558;18.150;2023-01-26T13:34:57;99855.78;;;2.60;88.08